Weather at Sharjah International Airport

Public forecast

Using degrees Celsius for public forecast. Weather courtesy of forecast.io.

Current aviation weather report (METAR) for Sharjah International Airport

2024/06/20 12:00 (retrieved 1 hour ago)

OMSJ 201200Z 31007KT 260V350 CAVOK 39/26 Q0995 NOSIG

Aviation forecast (TAF) for Sharjah International Airport

2024/06/20 12:00 (retrieved 1 hour ago)

TAF OMSJ 201100Z 2012/2118 32012KT 8000 NSC BECMG 2015/2017 VRB02KT BECMG 2108/2110 33014KT BECMG 2116/2118 VRB02KT